createdAt,value
2019-04-29T00:01:37.897Z,100280.37
2019-04-29T00:04:09.375Z,100280.37
2019-04-29T00:06:40.845Z,100284.45
2019-04-29T00:09:17.601Z,100290.22
2019-04-29T00:11:49.068Z,100293.67
2019-04-29T00:14:20.417Z,100292.57
2019-04-29T00:17:02.620Z,100297.07
2019-04-29T00:19:38.471Z,100290.41
2019-04-29T00:22:09.847Z,100291.59
2019-04-29T00:24:41.366Z,100288.84
2019-04-29T00:27:12.900Z,100290.77
2019-04-29T00:29:45.561Z,100293.53
2019-04-29T00:32:17.074Z,100292.81
2019-04-29T00:34:48.551Z,100298.19
2019-04-29T00:37:30.514Z,100295.05
2019-04-29T00:40:03.713Z,100303.17
2019-04-29T00:42:36.794Z,100305.92
2019-04-29T00:45:09.599Z,100307.38
2019-04-29T00:47:41.143Z,100299.45
2019-04-29T00:50:13.072Z,100298.39
2019-04-29T00:52:44.688Z,100299.78
2019-04-29T00:55:17.820Z,100304.45
2019-04-29T00:57:49.202Z,100303.68
2019-04-29T01:00:28.237Z,100300.20
2019-04-29T01:02:59.641Z,100292.68
2019-04-29T01:05:31.164Z,100301.70
2019-04-29T01:08:03.616Z,100302.00
2019-04-29T01:10:35.024Z,100299.98
2019-04-29T01:13:06.524Z,100298.75
2019-04-29T01:15:37.919Z,100290.37
2019-04-29T01:18:09.397Z,100288.55
2019-04-29T01:20:40.824Z,100290.66
2019-04-29T01:23:12.342Z,100294.47
2019-04-29T01:25:45.410Z,100295.63
2019-04-29T01:28:18.622Z,100289.05
2019-04-29T01:30:55.822Z,100286.38
2019-04-29T01:33:27.209Z,100290.37
2019-04-29T01:36:06.001Z,100290.98
2019-04-29T01:38:38.836Z,100300.63
2019-04-29T01:41:30.228Z,100299.05
2019-04-29T01:44:02.793Z,100299.27
2019-04-29T01:46:34.307Z,100305.94
2019-04-29T01:49:05.689Z,100313.88
2019-04-29T01:51:37.155Z,100308.30
2019-04-29T01:54:08.630Z,100313.77
2019-04-29T01:56:39.998Z,100313.03
2019-04-29T01:59:11.573Z,100310.41
2019-04-29T02:01:43.033Z,100317.38
2019-04-29T02:04:14.523Z,100315.05
2019-04-29T02:06:46.143Z,100310.41
2019-04-29T02:09:27.989Z,100321.41
2019-04-29T02:11:59.419Z,100308.30
2019-04-29T02:14:30.830Z,100320.55
2019-04-29T02:17:02.369Z,100322.05
2019-04-29T02:19:33.827Z,100318.75
2019-04-29T02:22:09.567Z,100323.30
2019-04-29T02:24:43.653Z,100327.84
2019-04-29T02:27:16.127Z,100332.40
2019-04-29T02:29:47.597Z,100333.46
2019-04-29T02:32:19.164Z,100333.03
2019-04-29T02:34:50.530Z,100339.38
2019-04-29T02:37:23.695Z,100339.26
2019-04-29T02:39:56.819Z,100341.50
2019-04-29T02:42:48.045Z,100339.57
2019-04-29T02:45:21.118Z,100348.16
2019-04-29T02:47:52.681Z,100350.99
2019-04-29T02:50:24.247Z,100347.21
2019-04-29T02:52:55.717Z,100342.54
2019-04-29T02:55:28.823Z,100334.41
2019-04-29T02:58:02.013Z,100335.87
2019-04-29T03:00:51.394Z,100343.48
2019-04-29T03:03:24.629Z,100337.66
2019-04-29T03:06:03.521Z,100338.42
2019-04-29T03:08:34.916Z,100342.11
2019-04-29T03:11:06.359Z,100344.87
2019-04-29T03:13:37.777Z,100356.16
2019-04-29T03:16:09.348Z,100357.31
2019-04-29T03:18:42.359Z,100356.28
2019-04-29T03:21:27.405Z,100355.92
2019-04-29T03:23:59.088Z,100357.49
2019-04-29T03:26:30.648Z,100353.81
2019-04-29T03:29:02.142Z,100354.89
2019-04-29T03:31:39.084Z,100357.74
2019-04-29T03:34:06.723Z,100359.96
2019-04-29T03:36:38.325Z,100363.03
2019-04-29T03:39:09.745Z,100355.66
2019-04-29T03:41:41.183Z,100361.88
2019-04-29T03:44:13.754Z,100354.47
2019-04-29T03:46:45.335Z,100361.03
2019-04-29T03:49:16.733Z,100359.23
2019-04-29T03:51:48.227Z,100363.78
2019-04-29T03:54:19.791Z,100367.91
2019-04-29T03:56:51.402Z,100372.56
2019-04-29T03:59:23.139Z,100376.69
2019-04-29T04:01:56.170Z,100377.48
2019-04-29T04:04:45.554Z,100374.05
2019-04-29T04:07:27.818Z,100376.94
2019-04-29T04:09:59.472Z,100368.16
2019-04-29T04:12:31.081Z,100368.76
2019-04-29T04:15:02.668Z,100379.13
2019-04-29T04:17:53.514Z,100380.81
2019-04-29T04:20:25.162Z,100382.67
2019-04-29T04:22:56.874Z,100386.17
2019-04-29T04:25:28.398Z,100385.70
2019-04-29T04:27:59.858Z,100387.10
2019-04-29T04:30:31.368Z,100384.83
2019-04-29T04:33:02.916Z,100401.18
2019-04-29T04:35:34.408Z,100391.00
2019-04-29T04:38:05.992Z,100390.89
2019-04-29T04:40:39.122Z,100391.99
2019-04-29T04:43:10.626Z,100391.23
2019-04-29T04:45:42.328Z,100389.28
2019-04-29T04:48:13.749Z,100388.46
2019-04-29T04:50:45.251Z,100396.64
2019-04-29T04:53:16.667Z,100399.92
2019-04-29T04:55:50.273Z,100395.80
2019-04-29T04:58:22.089Z,100401.19
2019-04-29T05:00:53.718Z,100396.29
2019-04-29T05:03:25.365Z,100401.59
2019-04-29T05:05:56.867Z,100403.75
2019-04-29T05:08:28.413Z,100402.20
2019-04-29T05:11:00.060Z,100400.05
2019-04-29T05:13:31.460Z,100407.34
2019-04-29T05:16:03.074Z,100402.41
2019-04-29T05:18:34.457Z,100404.42
2019-04-29T05:21:05.951Z,100398.58
2019-04-29T05:23:37.336Z,100402.86
2019-04-29T05:26:08.781Z,100399.84
2019-04-29T05:28:40.392Z,100406.92
2019-04-29T05:31:12.033Z,100407.02
2019-04-29T05:33:43.626Z,100402.13
2019-04-29T05:36:19.517Z,100406.48
2019-04-29T05:38:55.647Z,100412.48
2019-04-29T05:41:30.046Z,100408.00
2019-04-29T05:44:02.232Z,100414.03
2019-04-29T05:46:36.509Z,100405.08
2019-04-29T05:49:09.516Z,100407.63
2019-04-29T05:51:57.558Z,100412.09
2019-04-29T05:54:31.782Z,100402.91
2019-04-29T05:57:01.733Z,100412.65
2019-04-29T05:59:33.157Z,100413.06
2019-04-29T06:02:04.580Z,100412.87
2019-04-29T06:04:36.135Z,100408.23
2019-04-29T06:07:07.612Z,100403.73
2019-04-29T06:09:39.169Z,100401.27
2019-04-29T06:12:10.558Z,100399.15
2019-04-29T06:14:42.010Z,100397.67
2019-04-29T06:17:13.510Z,100402.27
2019-04-29T06:19:45.011Z,100403.56
2019-04-29T06:22:16.689Z,100413.58
2019-04-29T06:24:48.284Z,100414.80
2019-04-29T06:27:19.809Z,100413.44
2019-04-29T06:29:51.319Z,100413.69
2019-04-29T06:32:25.056Z,100404.40
2019-04-29T06:34:57.054Z,100400.98
2019-04-29T06:37:28.665Z,100406.81
2019-04-29T06:40:00.107Z,100404.20
2019-04-29T06:42:33.441Z,100409.07
2019-04-29T06:45:07.669Z,100398.30
2019-04-29T06:47:39.271Z,100401.72
2019-04-29T06:50:10.761Z,100408.52
2019-04-29T06:52:42.396Z,100405.27
2019-04-29T06:55:14.237Z,100399.80
2019-04-29T06:57:45.707Z,100407.98
2019-04-29T07:00:17.502Z,100405.31
2019-04-29T07:02:51.070Z,100406.61
2019-04-29T07:05:22.622Z,100414.41
2019-04-29T07:07:54.234Z,100418.73
2019-04-29T07:10:26.973Z,100415.48
2019-04-29T07:13:00.438Z,100411.44
2019-04-29T07:15:32.032Z,100418.11
2019-04-29T07:18:03.549Z,100415.53
2019-04-29T07:20:37.194Z,100415.72
2019-04-29T07:23:08.394Z,100416.27
2019-04-29T07:25:39.890Z,100417.39
2019-04-29T07:28:13.694Z,100411.27
2019-04-29T07:31:00.459Z,100411.98
2019-04-29T07:33:22.622Z,100415.08
2019-04-29T07:35:52.712Z,100409.03
2019-04-29T07:38:24.190Z,100413.71
2019-04-29T07:40:56.793Z,100423.77
2019-04-29T07:43:28.662Z,100419.91
2019-04-29T07:46:05.560Z,100425.20
2019-04-29T07:48:41.861Z,100422.00
2019-04-29T07:51:12.195Z,100426.77
2019-04-29T07:53:45.458Z,100426.89
2019-04-29T07:56:16.901Z,100420.16
2019-04-29T07:58:48.718Z,100423.14
2019-04-29T08:01:24.538Z,100415.08
2019-04-29T08:03:53.596Z,100417.99
2019-04-29T08:06:25.260Z,100410.91
2019-04-29T08:09:07.058Z,100412.98
2019-04-29T08:11:34.361Z,100416.01
2019-04-29T08:14:05.862Z,100414.25
2019-04-29T08:16:37.340Z,100419.61
2019-04-29T08:19:08.799Z,100417.42
2019-04-29T08:21:40.269Z,100418.82
2019-04-29T08:24:15.922Z,100426.64
2019-04-29T08:26:47.627Z,100428.89
2019-04-29T08:29:18.426Z,100426.80
2019-04-29T08:31:51.758Z,100430.40
2019-04-29T08:34:24.369Z,100416.92
2019-04-29T08:36:57.214Z,100418.48
2019-04-29T08:39:29.332Z,100424.56
2019-04-29T08:42:08.729Z,100426.77
2019-04-29T08:44:44.420Z,100426.95
2019-04-29T08:47:22.944Z,100428.72
2019-04-29T08:49:53.443Z,100424.16
2019-04-29T08:52:24.827Z,100420.09
2019-04-29T08:54:57.365Z,100418.25
2019-04-29T08:57:31.945Z,100419.38
2019-04-29T09:00:02.113Z,100421.48
2019-04-29T09:02:35.780Z,100419.22
2019-04-29T09:05:12.846Z,100423.19
2019-04-29T09:07:44.181Z,100420.78
2019-04-29T09:10:15.983Z,100423.17
2019-04-29T09:12:47.595Z,100420.43
2019-04-29T09:15:19.403Z,100418.48
2019-04-29T09:17:50.867Z,100426.05
2019-04-29T09:20:22.373Z,100423.25
2019-04-29T09:22:55.586Z,100424.42
2019-04-29T09:25:28.642Z,100425.10
2019-04-29T09:28:01.684Z,100425.95
2019-04-29T09:30:33.376Z,100433.84
2019-04-29T09:33:08.692Z,100440.52
2019-04-29T09:35:40.509Z,100435.61
2019-04-29T09:38:12.074Z,100444.56
2019-04-29T09:40:45.758Z,100438.22
2019-04-29T09:43:25.856Z,100447.91
2019-04-29T09:46:03.199Z,100446.91
2019-04-29T09:48:36.244Z,100456.14
2019-04-29T09:51:17.279Z,100455.80
2019-04-29T09:53:42.382Z,100455.13
2019-04-29T09:56:15.757Z,100455.38
2019-04-29T09:58:47.330Z,100454.06
2019-04-29T10:01:29.626Z,100458.39
2019-04-29T10:04:05.658Z,100462.41
2019-04-29T10:06:38.869Z,100461.92
2019-04-29T10:09:11.227Z,100461.41
2019-04-29T10:11:42.814Z,100467.42
2019-04-29T10:14:14.461Z,100468.95
2019-04-29T10:16:56.947Z,100466.55
2019-04-29T10:19:30.063Z,100466.94
2019-04-29T10:22:01.589Z,100469.39
2019-04-29T10:24:33.035Z,100464.26
2019-04-29T10:27:07.267Z,100462.66
2019-04-29T10:29:39.625Z,100460.87
2019-04-29T10:32:11.558Z,100464.08
2019-04-29T10:34:43.306Z,100466.18
2019-04-29T10:37:16.141Z,100469.77
2019-04-29T10:39:52.049Z,100476.33
2019-04-29T10:42:31.363Z,100477.82
2019-04-29T10:45:20.876Z,100475.95
2019-04-29T10:47:56.906Z,100470.63
2019-04-29T10:50:33.234Z,100465.60
2019-04-29T10:53:06.624Z,100457.84
2019-04-29T10:55:38.562Z,100472.95
2019-04-29T10:58:10.250Z,100471.31
2019-04-29T11:00:57.253Z,100472.66
2019-04-29T11:03:28.164Z,100477.17
2019-04-29T11:06:01.774Z,100479.69
2019-04-29T11:08:38.174Z,100474.85
2019-04-29T11:11:22.196Z,100472.52
2019-04-29T11:13:47.062Z,100474.82
2019-04-29T11:16:16.138Z,100483.60
2019-04-29T11:18:47.611Z,100475.27
2019-04-29T11:21:19.098Z,100479.05
2019-04-29T11:24:08.594Z,100478.69
2019-04-29T11:26:44.559Z,100477.69
2019-04-29T11:29:15.142Z,100478.48
2019-04-29T11:31:49.189Z,100475.78
2019-04-29T11:34:29.222Z,100469.14
2019-04-29T11:37:00.692Z,100473.84
2019-04-29T11:39:32.338Z,100473.53
2019-04-29T11:42:07.487Z,100472.94
2019-04-29T11:44:38.173Z,100471.49
2019-04-29T11:47:09.372Z,100466.17
2019-04-29T11:49:42.599Z,100466.70
2019-04-29T11:52:14.152Z,100465.27
2019-04-29T11:54:45.667Z,100472.02
2019-04-29T11:57:21.701Z,100471.17
2019-04-29T12:00:00.986Z,100466.30
2019-04-29T12:02:45.179Z,100473.08
2019-04-29T12:05:16.079Z,100471.14
2019-04-29T12:07:47.593Z,100467.98
2019-04-29T12:10:19.200Z,100470.45
2019-04-29T12:12:50.795Z,100468.38
2019-04-29T12:15:45.126Z,100468.11
2019-04-29T12:18:16.878Z,100470.13
2019-04-29T12:20:50.240Z,100469.94
2019-04-29T12:23:21.775Z,100475.95
2019-04-29T12:25:53.353Z,100462.58
2019-04-29T12:28:26.970Z,100465.01
2019-04-29T12:30:59.631Z,100476.22
2019-04-29T12:33:37.002Z,100464.77
2019-04-29T12:36:07.780Z,100473.09
2019-04-29T12:38:48.840Z,100463.59
2019-04-29T12:41:31.648Z,100450.02
2019-04-29T12:44:04.500Z,100457.80
2019-04-29T12:46:40.683Z,100458.34
2019-04-29T12:49:13.814Z,100467.55
2019-04-29T12:51:45.915Z,100452.31
2019-04-29T12:54:17.395Z,100456.41
2019-04-29T12:56:49.531Z,100448.86
2019-04-29T12:59:22.347Z,100448.02
2019-04-29T13:02:01.519Z,100443.83
2019-04-29T13:04:49.816Z,100458.81
2019-04-29T13:07:33.821Z,100448.87
2019-04-29T13:10:13.771Z,100451.03
2019-04-29T13:12:46.181Z,100457.50
2019-04-29T13:15:37.698Z,100449.82
2019-04-29T13:18:13.874Z,100455.41
2019-04-29T13:20:45.643Z,100453.42
2019-04-29T13:23:19.523Z,100452.69
2019-04-29T13:25:50.967Z,100454.59
2019-04-29T13:28:29.766Z,100454.78
2019-04-29T13:30:56.716Z,100457.03
2019-04-29T13:33:30.409Z,100443.75
2019-04-29T13:36:01.996Z,100461.00
2019-04-29T13:38:33.724Z,100455.62
2019-04-29T13:41:13.557Z,100456.91
2019-04-29T13:43:38.780Z,100458.73
2019-04-29T13:46:28.420Z,100452.27
2019-04-29T13:49:17.955Z,100455.16
2019-04-29T13:51:51.010Z,100455.58
2019-04-29T13:54:22.460Z,100455.97
2019-04-29T13:56:56.350Z,100444.89
2019-04-29T13:59:29.152Z,100454.02
2019-04-29T14:02:22.784Z,100437.59
2019-04-29T14:04:55.970Z,100449.97
2019-04-29T14:07:26.268Z,100452.70
2019-04-29T14:09:57.543Z,100458.07
2019-04-29T14:15:02.313Z,100456.63
2019-04-29T14:17:35.620Z,100469.77
2019-04-29T14:20:10.891Z,100468.34
2019-04-29T14:22:41.374Z,100458.10
2019-04-29T14:25:15.462Z,100456.17
2019-04-29T14:27:46.938Z,100460.63
2019-04-29T14:30:20.987Z,100467.65
2019-04-29T14:32:54.444Z,100462.16
2019-04-29T14:35:43.766Z,100469.64
2019-04-29T14:38:12.873Z,100471.88
2019-04-29T14:40:44.530Z,100476.09
2019-04-29T14:43:35.792Z,100474.25
2019-04-29T14:46:26.992Z,100459.29
2019-04-29T14:49:09.054Z,100475.38
2019-04-29T14:51:40.506Z,100460.66
2019-04-29T14:54:12.082Z,100458.16
2019-04-29T14:56:43.550Z,100464.50
2019-04-29T14:59:15.349Z,100466.52
2019-04-29T15:01:51.754Z,100453.73
2019-04-29T15:04:24.962Z,100455.17
2019-04-29T15:06:56.644Z,100450.53
2019-04-29T15:09:29.503Z,100447.25
2019-04-29T15:12:02.909Z,100454.11
2019-04-29T15:14:54.734Z,100451.50
2019-04-29T15:17:35.337Z,100437.91
2019-04-29T15:20:09.681Z,100442.85
2019-04-29T15:22:42.111Z,100447.47
2019-04-29T15:25:16.783Z,100448.04
2019-04-29T15:27:47.176Z,100446.25
2019-04-29T15:30:18.928Z,100464.45
2019-04-29T15:32:53.175Z,100457.23
2019-04-29T15:35:24.293Z,100452.67
2019-04-29T15:37:57.018Z,100455.91
2019-04-29T15:40:28.784Z,100458.09
2019-04-29T15:43:00.611Z,100463.78
2019-04-29T15:45:34.131Z,100463.58
2019-04-29T15:48:05.577Z,100465.61
2019-04-29T15:50:38.967Z,100457.19
2019-04-29T15:53:10.349Z,100468.34
2019-04-29T15:55:41.914Z,100463.02
2019-04-29T15:58:13.490Z,100462.72
2019-04-29T16:00:45.154Z,100466.67
2019-04-29T16:03:19.578Z,100464.50
2019-04-29T16:06:19.846Z,100462.95
2019-04-29T16:08:34.816Z,100464.20
2019-04-29T16:11:10.892Z,100476.53
2019-04-29T16:13:47.760Z,100475.73
2019-04-29T16:16:15.909Z,100469.34
2019-04-29T16:18:47.543Z,100473.64
2019-04-29T16:21:20.278Z,100477.36
2019-04-29T16:23:57.454Z,100472.09
2019-04-29T16:26:30.137Z,100475.62
2019-04-29T16:28:58.542Z,100483.50
2019-04-29T16:31:30.001Z,100469.22
2019-04-29T16:34:01.621Z,100483.05
2019-04-29T16:36:33.670Z,100486.89
2019-04-29T16:39:06.875Z,100491.40
2019-04-29T16:41:50.969Z,100494.92
2019-04-29T16:44:34.646Z,100498.71
2019-04-29T16:46:54.517Z,100509.39
2019-04-29T16:49:26.232Z,100496.75
2019-04-29T16:52:00.575Z,100496.20
2019-04-29T16:54:32.189Z,100499.64
2019-04-29T16:57:03.843Z,100498.98
2019-04-29T16:59:35.590Z,100498.66
2019-04-29T17:02:07.102Z,100498.59
2019-04-29T17:04:38.801Z,100501.67
2019-04-29T17:07:13.345Z,100502.19
2019-04-29T17:10:02.413Z,100504.02
2019-04-29T17:12:38.046Z,100502.94
2019-04-29T17:15:23.733Z,100512.47
2019-04-29T17:17:43.034Z,100522.03
2019-04-29T17:20:15.639Z,100512.05
2019-04-29T17:22:48.318Z,100521.82
2019-04-29T17:25:20.263Z,100520.20
2019-04-29T17:27:53.722Z,100519.38
2019-04-29T17:30:46.685Z,100526.31
2019-04-29T17:33:26.364Z,100525.16
2019-04-29T17:35:49.452Z,100518.05
2019-04-29T17:38:21.214Z,100513.66
2019-04-29T17:40:52.754Z,100520.55
2019-04-29T17:43:25.956Z,100519.38
2019-04-29T17:46:05.352Z,100520.95
2019-04-29T17:48:48.641Z,100525.35
2019-04-29T17:51:21.905Z,100514.59
2019-04-29T17:53:58.883Z,100517.53
2019-04-29T17:56:38.126Z,100519.59
2019-04-29T17:59:29.556Z,100522.11
2019-04-29T18:02:21.649Z,100518.52
2019-04-29T18:04:54.206Z,100519.97
2019-04-29T18:07:35.093Z,100511.55
2019-04-29T18:10:29.488Z,100511.73
2019-04-29T18:13:00.508Z,100511.77
2019-04-29T18:15:47.064Z,100514.18
2019-04-29T18:18:12.371Z,100522.86
2019-04-29T18:20:47.222Z,100522.70
2019-04-29T18:23:23.546Z,100523.64
2019-04-29T18:25:59.441Z,100526.56
2019-04-29T18:28:31.081Z,100516.65
2019-04-29T18:31:05.798Z,100521.13
2019-04-29T18:33:36.942Z,100532.33
2019-04-29T18:36:19.078Z,100532.06
2019-04-29T18:38:42.564Z,100532.22
2019-04-29T18:41:24.330Z,100532.60
2019-04-29T18:43:49.619Z,100528.92
2019-04-29T18:46:21.354Z,100534.07
2019-04-29T18:48:55.880Z,100533.64
2019-04-29T18:51:28.791Z,100529.54
2019-04-29T18:54:00.301Z,100529.00
2019-04-29T18:56:32.183Z,100525.44
2019-04-29T18:59:05.407Z,100526.73
2019-04-29T19:01:37.174Z,100526.19
2019-04-29T19:04:17.370Z,100529.65
2019-04-29T19:06:51.235Z,100532.88
2019-04-29T19:09:27.357Z,100526.05
2019-04-29T19:12:01.731Z,100524.08
2019-04-29T19:14:34.826Z,100528.67
2019-04-29T19:17:08.145Z,100527.81
2019-04-29T19:19:39.739Z,100519.36
2019-04-29T19:22:11.264Z,100520.12
2019-04-29T19:24:46.194Z,100519.23
2019-04-29T19:27:16.233Z,100510.19
2019-04-29T19:29:47.908Z,100512.25
2019-04-29T19:32:23.109Z,100512.25
2019-04-29T19:34:54.954Z,100501.06
2019-04-29T19:37:32.098Z,100494.54
2019-04-29T19:39:59.809Z,100504.72
2019-04-29T19:42:35.892Z,100507.83
2019-04-29T19:45:06.437Z,100503.29
2019-04-29T19:47:38.542Z,100500.71
2019-04-29T19:50:10.548Z,100506.17
2019-04-29T19:52:42.164Z,100494.61
2019-04-29T19:55:14.812Z,100495.27
2019-04-29T19:57:50.249Z,100495.79
2019-04-29T20:00:28.119Z,100495.79
2019-04-29T20:02:53.962Z,100496.11
2019-04-29T20:05:40.107Z,100496.48
2019-04-29T20:08:21.383Z,100488.95
2019-04-29T20:10:50.536Z,100490.31
2019-04-29T20:13:20.089Z,100484.90
2019-04-29T20:16:09.890Z,100477.72
2019-04-29T20:21:20.739Z,100485.89
2019-04-29T20:21:28.766Z,100477.72
2019-04-29T20:23:52.387Z,100475.10
2019-04-29T20:26:28.401Z,100481.27
2019-04-29T20:28:55.722Z,100486.34
2019-04-29T20:31:38.862Z,100488.03
2019-04-29T20:34:09.594Z,100484.44
2019-04-29T20:36:43.048Z,100487.47
2019-04-29T20:39:22.832Z,100493.47
2019-04-29T20:41:49.220Z,100481.69
2019-04-29T20:44:21.063Z,100493.42
2019-04-29T20:47:14.249Z,100479.94
2019-04-29T20:49:26.309Z,100484.90
2019-04-29T20:52:08.962Z,100483.61
2019-04-29T20:54:42.389Z,100484.44
2019-04-29T20:57:18.844Z,100490.02
2019-04-29T20:59:50.365Z,100485.22
2019-04-29T21:02:31.199Z,100478.45
2019-04-29T21:04:57.847Z,100490.57
2019-04-29T21:07:28.636Z,100482.97
2019-04-29T21:10:06.812Z,100489.80
2019-04-29T21:12:55.771Z,100481.13
2019-04-29T21:15:36.172Z,100488.81
2019-04-29T21:18:10.315Z,100486.53
2019-04-29T21:20:41.417Z,100488.33
2019-04-29T21:23:13.001Z,100484.15
2019-04-29T21:25:45.811Z,100484.63
2019-04-29T21:28:17.580Z,100483.45
2019-04-29T21:30:49.158Z,100486.51
2019-04-29T21:33:21.643Z,100485.22
2019-04-29T21:36:13.243Z,100486.59
2019-04-29T21:39:01.870Z,100480.20
2019-04-29T21:41:37.561Z,100486.28
2019-04-29T21:44:09.057Z,100484.63
2019-04-29T21:46:40.703Z,100481.73
2019-04-29T21:49:12.747Z,100482.91
2019-04-29T21:51:46.575Z,100481.73
2019-04-29T21:54:17.982Z,100486.53
2019-04-29T21:56:50.450Z,100483.53
2019-04-29T21:59:21.976Z,100477.34
2019-04-29T22:01:53.578Z,100473.30
2019-04-29T22:04:25.095Z,100481.01
2019-04-29T22:06:59.877Z,100484.09
2019-04-29T22:09:36.040Z,100472.88
2019-04-29T22:12:05.653Z,100469.97
2019-04-29T22:14:37.457Z,100472.70
2019-04-29T22:17:08.809Z,100466.55
2019-04-29T22:19:40.432Z,100472.56
2019-04-29T22:22:11.929Z,100471.69
2019-04-29T22:24:43.557Z,100475.36
2019-04-29T22:27:16.165Z,100469.77
2019-04-29T22:29:48.059Z,100461.38
2019-04-29T22:32:19.635Z,100461.86
2019-04-29T22:34:54.458Z,100466.09
2019-04-29T22:37:25.506Z,100466.39
2019-04-29T22:39:58.770Z,100465.83
2019-04-29T22:42:37.849Z,100469.12
2019-04-29T22:45:09.650Z,100459.88
2019-04-29T22:47:41.050Z,100460.23
2019-04-29T22:50:13.641Z,100457.92
2019-04-29T22:52:45.403Z,100461.74
2019-04-29T22:55:16.951Z,100450.49
2019-04-29T22:57:48.551Z,100448.75
2019-04-29T23:00:28.010Z,100455.80
2019-04-29T23:02:57.695Z,100448.73
2019-04-29T23:05:28.010Z,100445.85
2019-04-29T23:08:00.575Z,100445.34
2019-04-29T23:10:32.139Z,100445.82
2019-04-29T23:13:05.993Z,100444.27
2019-04-29T23:15:37.382Z,100441.47
2019-04-29T23:18:09.422Z,100433.62
2019-04-29T23:20:45.581Z,100434.70
2019-04-29T23:23:18.982Z,100429.89
2019-04-29T23:25:52.141Z,100427.19
2019-04-29T23:28:26.872Z,100424.63
2019-04-29T23:30:56.972Z,100418.61
2019-04-29T23:33:28.583Z,100421.73
2019-04-29T23:36:00.134Z,100415.05
2019-04-29T23:38:31.623Z,100420.84
2019-04-29T23:41:03.154Z,100432.09
2019-04-29T23:43:35.561Z,100427.98
2019-04-29T23:46:07.327Z,100421.06
2019-04-29T23:48:39.774Z,100419.98
2019-04-29T23:51:11.533Z,100414.89
2019-04-29T23:53:45.209Z,100421.70
2019-04-29T23:56:16.800Z,100422.71
2019-04-29T23:58:53.033Z,100416.04
